createdAt,value
2022-09-10T00:02:24.982Z,1
2022-09-10T00:06:23.860Z,1
2022-09-10T00:10:23.941Z,1
2022-09-10T00:14:24.604Z,1
2022-09-10T00:18:24.169Z,1
2022-09-10T00:22:24.404Z,1
2022-09-10T00:26:24.272Z,0
2022-09-10T00:30:24.266Z,0
2022-09-10T00:34:23.971Z,0
2022-09-10T00:38:23.821Z,1
2022-09-10T00:42:24.702Z,1
2022-09-10T00:46:24.075Z,1
2022-09-10T00:50:24.017Z,1
2022-09-10T00:54:24.716Z,1
2022-09-10T00:58:24.436Z,1
2022-09-10T01:02:23.961Z,0
2022-09-10T01:06:24.339Z,0
2022-09-10T01:10:24.252Z,1
2022-09-10T01:14:23.872Z,1
2022-09-10T01:18:24.239Z,1
2022-09-10T01:22:24.150Z,1
2022-09-10T01:26:24.599Z,1
2022-09-10T01:30:23.851Z,1
2022-09-10T01:34:23.915Z,1
2022-09-10T01:38:23.814Z,1
2022-09-10T01:42:24.176Z,1
2022-09-10T01:46:24.199Z,1
2022-09-10T01:50:24.287Z,1
2022-09-10T01:54:24.346Z,1
2022-09-10T01:58:24.104Z,1
2022-09-10T02:02:24.123Z,1
2022-09-10T02:06:24.634Z,1
2022-09-10T02:10:23.888Z,0
2022-09-10T02:14:24.678Z,1
2022-09-10T02:18:24.445Z,1
2022-09-10T02:22:24.192Z,0
2022-09-10T02:26:24.209Z,1
2022-09-10T02:30:24.496Z,1
2022-09-10T02:34:24.319Z,1
2022-09-10T02:38:23.813Z,2
2022-09-10T02:42:24.705Z,2
2022-09-10T02:46:24.364Z,1
2022-09-10T02:50:24.346Z,1
2022-09-10T02:54:24.106Z,1
2022-09-10T02:58:24.411Z,1
2022-09-10T03:02:23.999Z,1
2022-09-10T03:06:24.058Z,1
2022-09-10T03:10:24.076Z,1
2022-09-10T03:14:23.894Z,1
2022-09-10T03:18:24.679Z,1
2022-09-10T03:22:23.969Z,1
2022-09-10T03:26:24.531Z,1
2022-09-10T03:30:24.738Z,1
2022-09-10T03:34:24.063Z,1
2022-09-10T03:38:24.131Z,0
2022-09-10T03:42:24.607Z,0
2022-09-10T03:46:24.290Z,1
2022-09-10T03:50:24.333Z,0
2022-09-10T03:54:24.319Z,0
2022-09-10T03:58:24.105Z,1
2022-09-10T04:02:24.855Z,0
2022-09-10T04:06:24.613Z,0
2022-09-10T04:10:24.503Z,1
2022-09-10T04:14:24.378Z,0
2022-09-10T04:18:23.818Z,0
2022-09-10T04:22:24.265Z,1
2022-09-10T04:26:24.183Z,0
2022-09-10T04:30:24.680Z,0
2022-09-10T04:34:24.761Z,2
2022-09-10T04:38:24.369Z,1
2022-09-10T04:42:24.659Z,1
2022-09-10T04:46:23.849Z,0
2022-09-10T04:50:24.737Z,1
2022-09-10T04:54:24.410Z,1
2022-09-10T04:58:24.063Z,0
2022-09-10T05:02:24.727Z,1
2022-09-10T05:06:24.394Z,1
2022-09-10T05:10:24.145Z,0
2022-09-10T05:14:24.533Z,1
2022-09-10T05:18:24.196Z,1
2022-09-10T05:22:24.105Z,2
2022-09-10T05:26:24.653Z,1
2022-09-10T05:30:23.938Z,1
2022-09-10T05:34:24.057Z,0
2022-09-10T05:38:24.640Z,1
2022-09-10T05:42:24.260Z,1
2022-09-10T05:46:24.411Z,1
2022-09-10T05:50:24.088Z,1
2022-09-10T05:54:24.459Z,1
2022-09-10T05:58:24.120Z,1
2022-09-10T06:02:25.114Z,2
2022-09-10T06:06:24.096Z,2
2022-09-10T06:10:24.558Z,1
2022-09-10T06:14:24.157Z,0
2022-09-10T06:18:23.997Z,0
2022-09-10T06:22:23.772Z,1
2022-09-10T06:26:24.716Z,0
2022-09-10T06:30:24.289Z,0
2022-09-10T06:34:24.206Z,1
2022-09-10T06:38:24.698Z,1
2022-09-10T06:42:24.726Z,1
2022-09-10T06:47:39.320Z,0
2022-09-10T06:50:24.377Z,1
2022-09-10T06:52:24.711Z,1
2022-09-10T06:54:24.295Z,1
2022-09-10T06:56:24.581Z,1
2022-09-10T06:58:23.864Z,1
2022-09-10T07:00:27.397Z,1
2022-09-10T07:02:24.436Z,1
2022-09-10T07:04:23.968Z,1
2022-09-10T07:06:24.492Z,1
2022-09-10T07:08:24.811Z,1
2022-09-10T07:10:23.916Z,1
2022-09-10T07:12:24.513Z,1
2022-09-10T07:14:24.514Z,1
2022-09-10T07:16:24.193Z,1
2022-09-10T07:18:23.919Z,1
2022-09-10T07:20:24.423Z,2
2022-09-10T07:22:24.681Z,2
2022-09-10T07:24:24.034Z,2
2022-09-10T07:26:24.466Z,1
2022-09-10T07:28:24.223Z,1
2022-09-10T07:30:24.302Z,1
2022-09-10T07:32:25.127Z,2
2022-09-10T07:34:24.220Z,2
2022-09-10T07:36:24.007Z,2
2022-09-10T07:38:24.300Z,1
2022-09-10T07:40:24.766Z,1
2022-09-10T07:42:23.786Z,1
2022-09-10T07:44:24.539Z,2
2022-09-10T07:46:27.088Z,2
2022-09-10T07:48:24.282Z,2
2022-09-10T07:50:24.574Z,1
2022-09-10T07:52:23.991Z,1
2022-09-10T07:54:24.511Z,1
2022-09-10T07:56:24.695Z,2
2022-09-10T07:58:23.944Z,2
2022-09-10T08:00:27.332Z,2
2022-09-10T08:02:24.579Z,1
2022-09-10T08:04:24.213Z,1
2022-09-10T08:06:24.241Z,1
2022-09-10T08:08:23.853Z,1
2022-09-10T08:10:24.235Z,1
2022-09-10T08:12:23.790Z,1
2022-09-10T08:14:24.676Z,2
2022-09-10T08:16:24.596Z,2
2022-09-10T08:18:24.558Z,2
2022-09-10T08:20:24.726Z,2
2022-09-10T08:22:25.074Z,2
2022-09-10T08:24:24.549Z,2
2022-09-10T08:26:24.078Z,2
2022-09-10T08:28:25.627Z,2
2022-09-10T08:30:23.754Z,2
2022-09-10T08:32:24.365Z,4
2022-09-10T08:34:23.741Z,4
2022-09-10T08:36:23.878Z,4
2022-09-10T08:38:24.386Z,4
2022-09-10T08:40:24.557Z,4
2022-09-10T08:42:23.934Z,4
2022-09-10T08:44:23.963Z,5
2022-09-10T08:46:24.271Z,5
2022-09-10T08:48:24.413Z,5
2022-09-10T08:50:23.940Z,2
2022-09-10T08:52:24.513Z,2
2022-09-10T08:54:24.646Z,2
2022-09-10T08:56:24.428Z,2
2022-09-10T08:58:24.022Z,2
2022-09-10T09:00:27.471Z,2
2022-09-10T09:02:49.834Z,2
2022-09-10T09:04:28.826Z,2
2022-09-10T09:06:24.190Z,2
2022-09-10T09:08:24.273Z,4
2022-09-10T09:10:24.613Z,4
2022-09-10T09:12:24.594Z,4
2022-09-10T09:14:24.264Z,2
2022-09-10T09:16:24.677Z,2
2022-09-10T09:18:24.306Z,2
2022-09-10T09:20:24.792Z,4
2022-09-10T09:22:24.657Z,4
2022-09-10T09:24:36.490Z,4
2022-09-10T09:26:24.182Z,4
2022-09-10T09:28:24.555Z,4
2022-09-10T09:30:24.688Z,4
2022-09-10T09:32:23.797Z,2
2022-09-10T09:34:23.996Z,2
2022-09-10T09:36:24.091Z,2
2022-09-10T09:38:24.057Z,4
2022-09-10T09:40:24.268Z,4
2022-09-10T09:42:24.333Z,4
2022-09-10T09:44:24.512Z,4
2022-09-10T09:46:24.102Z,4
2022-09-10T09:48:24.241Z,4
2022-09-10T09:50:24.502Z,7
2022-09-10T09:52:24.031Z,7
2022-09-10T09:55:25.376Z,2
2022-09-10T09:56:23.806Z,2
2022-09-10T09:58:24.083Z,2
2022-09-10T10:00:27.216Z,2
2022-09-10T10:02:24.739Z,5
2022-09-10T10:04:23.905Z,5
2022-09-10T10:06:24.198Z,5
2022-09-10T10:08:24.652Z,5
2022-09-10T10:10:24.409Z,5
2022-09-10T10:12:23.983Z,5
2022-09-10T10:14:24.173Z,4
2022-09-10T10:16:24.806Z,4
2022-09-10T10:18:24.317Z,4
2022-09-10T10:20:23.980Z,5
2022-09-10T10:22:24.346Z,5
2022-09-10T10:24:24.135Z,5
2022-09-10T10:26:24.357Z,7
2022-09-10T10:28:24.642Z,7
2022-09-10T10:30:24.704Z,7
2022-09-10T10:32:28.255Z,7
2022-09-10T10:34:24.266Z,7
2022-09-10T10:36:24.556Z,7
2022-09-10T10:38:24.322Z,5
2022-09-10T10:40:24.249Z,5
2022-09-10T10:42:24.654Z,5
2022-09-10T10:44:24.380Z,5
2022-09-10T10:46:24.704Z,5
2022-09-10T10:48:24.555Z,5
2022-09-10T10:50:24.760Z,5
2022-09-10T10:52:24.244Z,5
2022-09-10T10:54:24.561Z,5
2022-09-10T10:56:24.202Z,5
2022-09-10T10:58:23.934Z,5
2022-09-10T11:00:27.205Z,5
2022-09-10T11:02:24.679Z,4
2022-09-10T11:04:24.140Z,4
2022-09-10T11:06:24.179Z,4
2022-09-10T11:08:24.442Z,4
2022-09-10T11:10:24.146Z,4
2022-09-10T11:12:24.351Z,4
2022-09-10T11:14:24.893Z,5
2022-09-10T11:16:24.335Z,5
2022-09-10T11:18:24.717Z,5
2022-09-10T11:20:49.578Z,5
2022-09-10T11:22:24.346Z,5
2022-09-10T11:24:28.418Z,5
2022-09-10T11:26:24.554Z,4
2022-09-10T11:28:23.955Z,4
2022-09-10T11:30:24.188Z,4
2022-09-10T11:32:24.441Z,4
2022-09-10T11:34:23.952Z,4
2022-09-10T11:36:24.246Z,4
2022-09-10T11:38:24.472Z,4
2022-09-10T11:40:24.421Z,4
2022-09-10T11:42:24.110Z,4
2022-09-10T11:44:24.089Z,6
2022-09-10T11:46:24.820Z,6
2022-09-10T11:48:23.889Z,6
2022-09-10T11:50:24.158Z,5
2022-09-10T11:52:24.444Z,5
2022-09-10T11:54:23.985Z,5
2022-09-10T11:56:24.187Z,5
2022-09-10T11:58:23.812Z,5
2022-09-10T12:00:28.972Z,5
2022-09-10T12:02:24.100Z,4
2022-09-10T12:04:24.032Z,4
2022-09-10T12:06:24.360Z,4
2022-09-10T12:08:24.456Z,5
2022-09-10T12:10:25.998Z,5
2022-09-10T12:12:24.700Z,5
2022-09-10T12:14:24.085Z,4
2022-09-10T12:16:24.492Z,4
2022-09-10T12:18:24.606Z,4
2022-09-10T12:20:24.449Z,4
2022-09-10T12:22:24.244Z,4
2022-09-10T12:24:24.223Z,4
2022-09-10T12:26:24.108Z,6
2022-09-10T12:28:24.281Z,6
2022-09-10T12:30:24.712Z,6
2022-09-10T12:32:24.278Z,5
2022-09-10T12:34:24.400Z,5
2022-09-10T12:36:23.913Z,5
2022-09-10T12:38:24.653Z,6
2022-09-10T12:40:24.673Z,6
2022-09-10T12:42:24.051Z,6
2022-09-10T12:44:23.988Z,5
2022-09-10T12:46:24.119Z,5
2022-09-10T12:48:26.919Z,5
2022-09-10T12:50:24.729Z,5
2022-09-10T12:52:24.452Z,5
2022-09-10T12:54:24.053Z,5
2022-09-10T12:56:27.089Z,5
2022-09-10T12:58:23.663Z,5
2022-09-10T13:00:26.680Z,5
2022-09-10T13:02:24.798Z,5
2022-09-10T13:04:24.515Z,5
2022-09-10T13:06:23.919Z,5
2022-09-10T13:08:24.552Z,6
2022-09-10T13:10:24.740Z,6
2022-09-10T13:12:23.903Z,6
2022-09-10T13:14:24.204Z,6
2022-09-10T13:16:24.706Z,6
2022-09-10T13:18:24.164Z,6
2022-09-10T13:20:23.905Z,5
2022-09-10T13:22:24.268Z,5
2022-09-10T13:24:23.837Z,5
2022-09-10T13:26:24.334Z,5
2022-09-10T13:28:23.883Z,5
2022-09-10T13:30:24.304Z,5
2022-09-10T13:32:24.335Z,5
2022-09-10T13:34:23.849Z,5
2022-09-10T13:36:24.501Z,5
2022-09-10T13:38:23.766Z,5
2022-09-10T13:40:24.713Z,5
2022-09-10T13:42:24.539Z,5
2022-09-10T13:44:24.001Z,5
2022-09-10T13:46:24.805Z,5
2022-09-10T13:48:24.164Z,5
2022-09-10T13:50:24.582Z,5
2022-09-10T13:52:24.710Z,5
2022-09-10T13:54:24.521Z,5
2022-09-10T13:56:25.667Z,5
2022-09-10T13:58:24.241Z,5
2022-09-10T14:00:29.842Z,5
2022-09-10T14:02:24.560Z,5
2022-09-10T14:04:24.157Z,5
2022-09-10T14:06:23.762Z,5
2022-09-10T14:08:24.067Z,5
2022-09-10T14:10:23.844Z,5
2022-09-10T14:12:23.799Z,5
2022-09-10T14:14:24.457Z,2
2022-09-10T14:16:29.507Z,2
2022-09-10T14:18:24.706Z,2
2022-09-10T14:20:24.837Z,6
2022-09-10T14:22:23.831Z,6
2022-09-10T14:24:24.015Z,6
2022-09-10T14:26:24.340Z,3
2022-09-10T14:28:24.668Z,3
2022-09-10T14:30:24.177Z,3
2022-09-10T14:32:24.110Z,3
2022-09-10T14:34:24.182Z,3
2022-09-10T14:36:24.349Z,3
2022-09-10T14:38:24.116Z,5
2022-09-10T14:40:24.909Z,5
2022-09-10T14:42:24.240Z,5
2022-09-10T14:44:24.145Z,2
2022-09-10T14:46:24.373Z,2
2022-09-10T14:48:24.000Z,2
2022-09-10T14:50:29.722Z,3
2022-09-10T14:52:23.990Z,3
2022-09-10T14:54:23.814Z,3
2022-09-10T14:56:24.604Z,5
2022-09-10T14:58:24.111Z,5
2022-09-10T15:00:28.801Z,5
2022-09-10T15:02:23.981Z,5
2022-09-10T15:04:24.316Z,5
2022-09-10T15:06:26.379Z,5
2022-09-10T15:08:23.962Z,5
2022-09-10T15:10:24.640Z,5
2022-09-10T15:12:24.102Z,5
2022-09-10T15:14:24.586Z,5
2022-09-10T15:16:24.660Z,5
2022-09-10T15:18:23.979Z,5
2022-09-10T15:20:27.655Z,3
2022-09-10T15:22:23.916Z,3
2022-09-10T15:24:24.533Z,3
2022-09-10T15:26:23.776Z,5
2022-09-10T15:28:24.121Z,5
2022-09-10T15:30:24.149Z,5
2022-09-10T15:32:24.451Z,5
2022-09-10T15:34:24.732Z,5
2022-09-10T15:36:24.682Z,5
2022-09-10T15:38:24.348Z,3
2022-09-10T15:40:25.002Z,3
2022-09-10T15:42:23.947Z,3
2022-09-10T15:44:24.266Z,5
2022-09-10T15:46:25.033Z,5
2022-09-10T15:48:24.237Z,5
2022-09-10T15:50:24.725Z,3
2022-09-10T15:52:24.605Z,3
2022-09-10T15:54:27.983Z,3
2022-09-10T15:56:24.627Z,3
2022-09-10T15:58:24.367Z,3
2022-09-10T16:00:26.647Z,3
2022-09-10T16:02:23.999Z,3
2022-09-10T16:04:23.924Z,3
2022-09-10T16:06:24.253Z,3
2022-09-10T16:08:24.594Z,3
2022-09-10T16:10:23.845Z,3
2022-09-10T16:12:23.868Z,3
2022-09-10T16:14:27.466Z,5
2022-09-10T16:16:24.197Z,5
2022-09-10T16:18:24.239Z,5
2022-09-10T16:20:24.238Z,3
2022-09-10T16:22:23.929Z,3
2022-09-10T16:24:24.272Z,3
2022-09-10T16:26:24.226Z,3
2022-09-10T16:28:24.273Z,3
2022-09-10T16:30:24.492Z,3
2022-09-10T16:32:23.868Z,3
2022-09-10T16:34:24.722Z,3
2022-09-10T16:36:24.362Z,3
2022-09-10T16:38:24.030Z,5
2022-09-10T16:40:24.596Z,5
2022-09-10T16:42:24.470Z,5
2022-09-10T16:44:23.733Z,3
2022-09-10T16:46:24.770Z,3
2022-09-10T16:48:27.075Z,3
2022-09-10T16:50:24.190Z,3
2022-09-10T16:52:23.936Z,3
2022-09-10T16:54:24.141Z,3
2022-09-10T16:56:23.836Z,2
2022-09-10T16:58:24.211Z,2
2022-09-10T17:00:26.573Z,2
2022-09-10T17:02:24.790Z,3
2022-09-10T17:04:30.168Z,3
2022-09-10T17:06:24.205Z,3
2022-09-10T17:08:24.115Z,5
2022-09-10T17:10:24.509Z,5
2022-09-10T17:12:24.163Z,5
2022-09-10T17:14:24.663Z,5
2022-09-10T17:16:29.929Z,5
2022-09-10T17:18:24.187Z,5
2022-09-10T17:20:24.585Z,5
2022-09-10T17:22:24.620Z,5
2022-09-10T17:24:24.296Z,5
2022-09-10T17:26:24.106Z,3
2022-09-10T17:28:23.906Z,3
2022-09-10T17:30:24.522Z,3
2022-09-10T17:32:24.222Z,4
2022-09-10T17:34:23.921Z,4
2022-09-10T17:36:24.714Z,4
2022-09-10T17:38:24.565Z,5
2022-09-10T17:40:24.893Z,5
2022-09-10T17:42:24.528Z,5
2022-09-10T17:44:24.004Z,6
2022-09-10T17:46:24.671Z,6
2022-09-10T17:48:27.651Z,6
2022-09-10T17:50:24.563Z,4
2022-09-10T17:52:24.160Z,4
2022-09-10T17:54:24.094Z,4
2022-09-10T17:56:24.638Z,5
2022-09-10T17:58:24.524Z,5
2022-09-10T18:00:26.523Z,5
2022-09-10T18:02:24.408Z,4
2022-09-10T18:04:24.120Z,4
2022-09-10T18:06:24.655Z,4
2022-09-10T18:08:24.211Z,4
2022-09-10T18:10:24.164Z,4
2022-09-10T18:12:24.504Z,4
2022-09-10T18:14:23.808Z,4
2022-09-10T18:16:24.692Z,4
2022-09-10T18:18:23.903Z,4
2022-09-10T18:20:23.843Z,4
2022-09-10T18:22:24.196Z,4
2022-09-10T18:24:23.886Z,4
2022-09-10T18:26:24.270Z,4
2022-09-10T18:28:24.433Z,4
2022-09-10T18:30:24.679Z,4
2022-09-10T18:32:26.200Z,5
2022-09-10T18:34:24.704Z,5
2022-09-10T18:36:24.462Z,5
2022-09-10T18:38:24.243Z,4
2022-09-10T18:40:24.673Z,4
2022-09-10T18:42:24.130Z,4
2022-09-10T18:44:24.489Z,2
2022-09-10T18:46:24.745Z,2
2022-09-10T18:48:24.387Z,2
2022-09-10T18:50:24.412Z,5
2022-09-10T18:52:24.440Z,5
2022-09-10T18:54:23.944Z,5
2022-09-10T18:56:23.885Z,4
2022-09-10T18:58:24.189Z,4
2022-09-10T19:00:27.162Z,4
2022-09-10T19:02:25.064Z,4
2022-09-10T19:04:24.148Z,4
2022-09-10T19:06:24.435Z,4
2022-09-10T19:08:24.114Z,4
2022-09-10T19:10:24.607Z,4
2022-09-10T19:12:29.884Z,4
2022-09-10T19:14:24.250Z,4
2022-09-10T19:16:24.530Z,4
2022-09-10T19:18:28.812Z,4
2022-09-10T19:20:24.123Z,5
2022-09-10T19:22:23.917Z,5
2022-09-10T19:24:37.606Z,5
2022-09-10T19:26:24.052Z,4
2022-09-10T19:28:24.145Z,4
2022-09-10T19:30:24.139Z,4
2022-09-10T19:32:24.316Z,4
2022-09-10T19:34:23.911Z,4
2022-09-10T19:36:24.236Z,4
2022-09-10T19:38:49.827Z,2
2022-09-10T19:40:24.495Z,2
2022-09-10T19:42:24.550Z,2
2022-09-10T19:44:23.760Z,4
2022-09-10T19:46:24.748Z,4
2022-09-10T19:48:23.805Z,4
2022-09-10T19:50:23.914Z,4
2022-09-10T19:52:23.864Z,4
2022-09-10T19:54:24.230Z,4
2022-09-10T19:56:29.466Z,2
2022-09-10T19:58:24.607Z,2
2022-09-10T20:00:54.591Z,2
2022-09-10T20:02:24.538Z,4
2022-09-10T20:04:24.379Z,4
2022-09-10T20:06:24.672Z,4
2022-09-10T20:08:23.779Z,4
2022-09-10T20:10:24.453Z,4
2022-09-10T20:12:24.084Z,4
2022-09-10T20:14:24.154Z,4
2022-09-10T20:16:24.500Z,4
2022-09-10T20:18:24.017Z,4
2022-09-10T20:20:24.147Z,4
2022-09-10T20:22:24.223Z,4
2022-09-10T20:24:24.278Z,4
2022-09-10T20:26:23.843Z,4
2022-09-10T20:28:23.783Z,4
2022-09-10T20:30:24.276Z,4
2022-09-10T20:32:23.987Z,4
2022-09-10T20:34:24.664Z,4
2022-09-10T20:36:24.673Z,4
2022-09-10T20:38:24.336Z,4
2022-09-10T20:40:24.287Z,4
2022-09-10T20:42:24.367Z,4
2022-09-10T20:44:24.429Z,4
2022-09-10T20:46:24.799Z,4
2022-09-10T20:48:24.133Z,4
2022-09-10T20:50:24.595Z,4
2022-09-10T20:52:24.441Z,4
2022-09-10T20:54:24.695Z,4
2022-09-10T20:56:23.916Z,5
2022-09-10T20:58:24.553Z,5
2022-09-10T21:00:26.874Z,5
2022-09-10T21:02:24.832Z,5
2022-09-10T21:04:24.539Z,5
2022-09-10T21:06:23.996Z,5
2022-09-10T21:08:23.750Z,4
2022-09-10T21:10:24.174Z,4
2022-09-10T21:12:24.604Z,4
2022-09-10T21:14:24.015Z,2
2022-09-10T21:16:24.867Z,2
2022-09-10T21:18:24.103Z,2
2022-09-10T21:20:24.271Z,4
2022-09-10T21:22:24.056Z,4
2022-09-10T21:24:24.354Z,4
2022-09-10T21:26:23.762Z,5
2022-09-10T21:28:24.125Z,5
2022-09-10T21:30:23.825Z,5
2022-09-10T21:32:23.908Z,2
2022-09-10T21:34:26.143Z,2
2022-09-10T21:36:24.232Z,2
2022-09-10T21:38:24.034Z,4
2022-09-10T21:40:24.458Z,4
2022-09-10T21:42:24.656Z,4
2022-09-10T21:44:24.009Z,5
2022-09-10T21:46:24.674Z,5
2022-09-10T21:48:24.385Z,5
2022-09-10T21:50:24.481Z,4
2022-09-10T21:52:23.985Z,4
2022-09-10T21:54:24.183Z,4
2022-09-10T21:56:24.445Z,2
2022-09-10T21:58:23.941Z,2
2022-09-10T22:00:27.579Z,2
2022-09-10T22:02:24.369Z,4
2022-09-10T22:04:24.299Z,4
2022-09-10T22:06:24.244Z,4
2022-09-10T22:08:24.381Z,5
2022-09-10T22:10:24.145Z,5
2022-09-10T22:12:24.737Z,5
2022-09-10T22:14:23.792Z,4
2022-09-10T22:16:24.545Z,4
2022-09-10T22:18:24.616Z,4
2022-09-10T22:20:24.299Z,4
2022-09-10T22:22:23.788Z,4
2022-09-10T22:24:23.918Z,4
2022-09-10T22:26:24.264Z,4
2022-09-10T22:28:24.372Z,4
2022-09-10T22:30:24.391Z,4
2022-09-10T22:32:24.653Z,5
2022-09-10T22:34:24.210Z,5
2022-09-10T22:36:23.740Z,5
2022-09-10T22:38:30.341Z,4
2022-09-10T22:40:24.889Z,4
2022-09-10T22:42:24.115Z,4
2022-09-10T22:44:24.028Z,5
2022-09-10T22:46:24.456Z,5
2022-09-10T22:48:24.061Z,5
2022-09-10T22:50:24.732Z,4
2022-09-10T22:52:24.212Z,4
2022-09-10T22:54:24.419Z,4
2022-09-10T22:56:24.685Z,4
2022-09-10T22:58:24.120Z,4
2022-09-10T23:00:26.498Z,4
2022-09-10T23:02:24.044Z,5
2022-09-10T23:04:24.605Z,5
2022-09-10T23:06:24.096Z,5
2022-09-10T23:08:24.322Z,2
2022-09-10T23:10:24.342Z,2
2022-09-10T23:12:24.739Z,2
2022-09-10T23:14:23.802Z,4
2022-09-10T23:16:24.857Z,4
2022-09-10T23:18:24.667Z,4
2022-09-10T23:20:23.915Z,5
2022-09-10T23:22:23.839Z,5
2022-09-10T23:24:24.066Z,5
2022-09-10T23:26:24.751Z,4
2022-09-10T23:28:29.632Z,4
2022-09-10T23:30:24.123Z,4
2022-09-10T23:32:24.337Z,4
2022-09-10T23:34:24.124Z,4
2022-09-10T23:36:23.873Z,4
2022-09-10T23:38:23.719Z,4
2022-09-10T23:40:28.855Z,4
2022-09-10T23:42:24.208Z,4
2022-09-10T23:44:24.326Z,2
2022-09-10T23:46:24.470Z,2
2022-09-10T23:48:24.724Z,2
2022-09-10T23:50:24.138Z,4
2022-09-10T23:52:24.691Z,4
2022-09-10T23:54:24.595Z,4
2022-09-10T23:56:24.576Z,2
2022-09-10T23:58:24.182Z,2
